createdAt,value
2023-01-05T00:01:40.565Z,11.40
2023-01-05T00:04:09.251Z,11.40
2023-01-05T00:06:39.624Z,11.30
2023-01-05T00:09:08.822Z,11.30
2023-01-05T00:11:54.187Z,11.40
2023-01-05T00:14:44.096Z,11.40
2023-01-05T00:17:31.855Z,11.40
2023-01-05T00:20:18.240Z,11.40
2023-01-05T00:22:48.892Z,11.50
2023-01-05T00:25:19.325Z,11.40
2023-01-05T00:27:50.801Z,11.40
2023-01-05T00:30:23.254Z,11.40
2023-01-05T00:32:51.572Z,11.40
2023-01-05T00:35:20.541Z,11.40
2023-01-05T00:37:50.158Z,11.40
2023-01-05T00:40:19.987Z,11.40
2023-01-05T00:42:48.769Z,11.40
2023-01-05T00:45:22.311Z,11.40
2023-01-05T00:47:52.017Z,11.40
2023-01-05T00:50:20.976Z,11.40
2023-01-05T00:52:50.094Z,11.30
2023-01-05T00:55:18.895Z,11.30
2023-01-05T00:57:47.139Z,11.30
2023-01-05T01:00:19.415Z,11.30
2023-01-05T01:02:53.022Z,11.30
2023-01-05T01:05:21.581Z,11.30
2023-01-05T01:07:50.273Z,11.30
2023-01-05T01:10:18.590Z,11.30
2023-01-05T01:12:46.896Z,11.30
2023-01-05T01:15:15.535Z,11.30
2023-01-05T01:17:43.762Z,11.30
2023-01-05T01:20:13.638Z,11.20
2023-01-05T01:22:42.274Z,11.20
2023-01-05T01:25:11.032Z,11.20
2023-01-05T01:27:39.285Z,11.20
2023-01-05T01:30:08.892Z,11.20
2023-01-05T01:32:37.197Z,11.20
2023-01-05T01:35:06.156Z,11.20
2023-01-05T01:37:35.905Z,11.20
2023-01-05T01:40:04.526Z,11.30
2023-01-05T01:42:32.971Z,11.40
2023-01-05T01:45:02.866Z,11.30
2023-01-05T01:47:39.786Z,11.30
2023-01-05T01:50:14.458Z,11.30
2023-01-05T01:52:45.609Z,11.20
2023-01-05T01:55:14.857Z,11.20
2023-01-05T01:57:44.038Z,11.30
2023-01-05T02:00:15.046Z,11.40
2023-01-05T02:02:43.720Z,11.40
2023-01-05T02:05:13.760Z,11.40
2023-01-05T02:07:48.308Z,11.40
2023-01-05T02:10:20.962Z,11.40
2023-01-05T02:13:06.369Z,11.40
2023-01-05T02:15:45.749Z,11.40
2023-01-05T02:18:30.210Z,11.30
2023-01-05T02:21:14.894Z,11.30
2023-01-05T02:24:14.823Z,11.30
2023-01-05T02:27:18.220Z,11.30
2023-01-05T02:30:27.141Z,11.30
2023-01-05T02:33:01.832Z,11.30
2023-01-05T02:35:39.192Z,11.30
2023-01-05T02:38:15.633Z,11.20
2023-01-05T02:40:49.273Z,11.20
2023-01-05T02:43:20.648Z,11.20
2023-01-05T02:45:49.356Z,11.30
2023-01-05T02:48:19.529Z,11.40
2023-01-05T02:50:54.282Z,11.30
2023-01-05T02:53:28.363Z,11.30
2023-01-05T02:56:02.039Z,11.30
2023-01-05T02:58:35.603Z,11.30
2023-01-05T03:01:07.693Z,11.40
2023-01-05T03:03:42.455Z,11.40
2023-01-05T03:06:16.717Z,11.40
2023-01-05T03:08:53.392Z,11.40
2023-01-05T03:11:39.351Z,11.40
2023-01-05T03:14:12.525Z,11.40
2023-01-05T03:16:41.334Z,11.40
2023-01-05T03:19:32.101Z,11.40
2023-01-05T03:22:21.249Z,11.40
2023-01-05T03:25:09.205Z,11.40
2023-01-05T03:27:55.209Z,11.50
2023-01-05T03:30:46.061Z,11.40
2023-01-05T03:33:39.633Z,11.50
2023-01-05T03:36:10.459Z,11.50
2023-01-05T03:38:43.549Z,11.40
2023-01-05T03:41:15.268Z,11.40
2023-01-05T03:43:44.463Z,11.40
2023-01-05T03:46:15.711Z,11.50
2023-01-05T03:48:44.170Z,11.40
2023-01-05T03:51:16.366Z,11.50
2023-01-05T03:53:44.906Z,11.50
2023-01-05T03:56:13.585Z,11.50
2023-01-05T03:58:42.002Z,11.50
2023-01-05T04:01:10.433Z,11.50
2023-01-05T04:03:40.954Z,11.50
2023-01-05T04:06:09.562Z,11.50
2023-01-05T04:08:39.315Z,11.60
2023-01-05T04:11:16.003Z,11.50
2023-01-05T04:13:44.665Z,11.50
2023-01-05T04:16:13.735Z,11.50
2023-01-05T04:18:42.568Z,11.40
2023-01-05T04:21:10.804Z,11.40
2023-01-05T04:23:40.437Z,11.40
2023-01-05T04:26:09.019Z,11.50
2023-01-05T04:28:37.272Z,11.50
2023-01-05T04:31:05.975Z,11.60
2023-01-05T04:33:34.563Z,11.60
2023-01-05T04:36:02.756Z,11.50
2023-01-05T04:38:31.253Z,11.50
2023-01-05T04:41:01.038Z,11.40
2023-01-05T04:43:29.285Z,11.40
2023-01-05T04:45:57.716Z,11.40
2023-01-05T04:48:26.312Z,11.50
2023-01-05T04:50:55.473Z,11.50
2023-01-05T04:53:23.976Z,11.40
2023-01-05T04:55:52.940Z,11.50
2023-01-05T04:58:22.927Z,11.50
2023-01-05T05:00:51.468Z,11.50
2023-01-05T05:03:20.045Z,11.50
2023-01-05T05:05:48.339Z,11.60
2023-01-05T05:08:17.003Z,11.40
2023-01-05T05:10:45.607Z,11.40
2023-01-05T05:13:13.749Z,11.40
2023-01-05T05:15:45.882Z,11.40
2023-01-05T05:18:14.537Z,11.40
2023-01-05T05:20:45.362Z,11.40
2023-01-05T05:23:13.545Z,11.30
2023-01-05T05:25:41.919Z,11.40
2023-01-05T05:28:10.162Z,11.40
2023-01-05T05:30:39.043Z,11.50
2023-01-05T05:33:08.918Z,11.40
2023-01-05T05:35:37.485Z,11.40
2023-01-05T05:38:05.687Z,11.40
2023-01-05T05:40:34.148Z,11.30
2023-01-05T05:43:02.406Z,11.40
2023-01-05T05:45:30.619Z,11.40
2023-01-05T05:48:01.247Z,11.40
2023-01-05T05:50:30.947Z,11.40
2023-01-05T05:52:59.138Z,11.30
2023-01-05T05:55:27.836Z,11.30
2023-01-05T05:57:56.068Z,11.30
2023-01-05T06:00:24.529Z,11.30
2023-01-05T06:02:53.420Z,11.30
2023-01-05T06:05:21.809Z,11.30
2023-01-05T06:07:51.436Z,11.40
2023-01-05T06:10:19.910Z,11.40
2023-01-05T06:12:48.171Z,11.40
2023-01-05T06:15:16.971Z,11.30
2023-01-05T06:17:48.583Z,11.20
2023-01-05T06:20:17.789Z,11.30
2023-01-05T06:22:46.634Z,11.30
2023-01-05T06:25:16.723Z,11.30
2023-01-05T06:27:44.931Z,11.30
2023-01-05T06:30:14.539Z,11.20
2023-01-05T06:32:43.080Z,11.20
2023-01-05T06:35:11.752Z,11.20
2023-01-05T06:37:40.222Z,11.10
2023-01-05T06:40:11.575Z,11.00
2023-01-05T06:42:42.191Z,11.00
2023-01-05T06:45:13.936Z,11.00
2023-01-05T06:47:43.711Z,10.90
2023-01-05T06:50:12.645Z,10.90
2023-01-05T06:52:41.296Z,10.90
2023-01-05T06:55:11.268Z,10.90
2023-01-05T06:57:41.182Z,11.00
2023-01-05T07:00:12.039Z,10.90
2023-01-05T07:02:40.670Z,10.80
2023-01-05T07:05:10.098Z,10.80
2023-01-05T07:07:39.266Z,10.80
2023-01-05T07:10:08.806Z,10.80
2023-01-05T07:12:37.146Z,10.90
2023-01-05T07:15:08.304Z,10.90
2023-01-05T07:17:37.708Z,10.80
2023-01-05T07:20:07.910Z,10.80
2023-01-05T07:22:36.264Z,10.70
2023-01-05T07:25:04.576Z,10.70
2023-01-05T07:27:33.040Z,10.70
2023-01-05T07:30:01.347Z,10.70
2023-01-05T07:32:31.050Z,10.70
2023-01-05T07:34:59.508Z,10.80
2023-01-05T07:37:27.877Z,10.70
2023-01-05T07:39:56.144Z,10.70
2023-01-05T07:42:24.427Z,10.70
2023-01-05T07:44:52.878Z,10.70
2023-01-05T07:47:21.011Z,10.70
2023-01-05T07:49:50.865Z,10.60
2023-01-05T07:52:19.169Z,10.80
2023-01-05T07:54:47.622Z,10.80
2023-01-05T07:57:15.915Z,10.90
2023-01-05T07:59:44.227Z,10.90
2023-01-05T08:02:12.575Z,11.00
2023-01-05T08:04:40.942Z,11.00
2023-01-05T08:07:11.772Z,11.00
2023-01-05T08:09:57.367Z,11.00
2023-01-05T08:12:26.850Z,11.00
2023-01-05T08:14:55.071Z,11.10
2023-01-05T08:17:23.343Z,11.10
2023-01-05T08:19:51.936Z,11.10
2023-01-05T08:22:21.504Z,11.20
2023-01-05T08:24:49.738Z,11.20
2023-01-05T08:27:18.391Z,11.30
2023-01-05T08:29:46.665Z,11.30
2023-01-05T08:32:14.947Z,11.30
2023-01-05T08:34:43.719Z,11.40
2023-01-05T08:37:11.954Z,11.50
2023-01-05T08:39:41.760Z,11.80
2023-01-05T08:42:10.448Z,12.00
2023-01-05T08:44:38.661Z,12.20
2023-01-05T08:47:06.852Z,12.50
2023-01-05T08:49:35.787Z,12.60
2023-01-05T08:52:04.199Z,12.80
2023-01-05T08:54:32.533Z,12.90
2023-01-05T08:57:02.791Z,12.90
2023-01-05T08:59:31.040Z,12.90
2023-01-05T09:01:59.683Z,12.60
2023-01-05T09:04:28.580Z,12.40
2023-01-05T09:06:56.912Z,12.40
2023-01-05T09:09:25.296Z,12.30
2023-01-05T09:11:53.685Z,12.10
2023-01-05T09:14:23.290Z,12.00
2023-01-05T09:17:06.868Z,12.00
2023-01-05T09:19:37.140Z,11.90
2023-01-05T09:22:05.843Z,11.90
2023-01-05T09:24:34.074Z,12.00
2023-01-05T09:27:03.925Z,12.00
2023-01-05T09:29:33.582Z,11.90
2023-01-05T09:32:01.744Z,11.80
2023-01-05T09:34:30.615Z,11.90
2023-01-05T09:36:58.835Z,12.00
2023-01-05T09:39:27.264Z,12.10
2023-01-05T09:41:59.270Z,12.00
2023-01-05T09:44:31.967Z,12.00
2023-01-05T09:47:05.722Z,12.00
2023-01-05T09:49:34.629Z,12.10
2023-01-05T09:52:09.546Z,12.10
2023-01-05T09:54:39.401Z,12.10
2023-01-05T09:57:14.768Z,12.10
2023-01-05T09:59:45.919Z,12.20
2023-01-05T10:02:28.278Z,12.20
2023-01-05T10:04:57.415Z,12.30
2023-01-05T10:07:35.250Z,12.30
2023-01-05T10:10:07.365Z,12.30
2023-01-05T10:13:03.378Z,12.30
2023-01-05T10:15:43.162Z,12.30
2023-01-05T10:18:15.698Z,12.40
2023-01-05T10:21:01.990Z,12.40
2023-01-05T10:23:54.552Z,12.60
2023-01-05T10:26:35.605Z,12.80
2023-01-05T10:29:23.617Z,13.00
2023-01-05T10:31:57.618Z,13.10
2023-01-05T10:34:43.901Z,13.20
2023-01-05T10:37:28.978Z,13.40
2023-01-05T10:40:09.555Z,13.70
2023-01-05T10:42:51.123Z,13.90
2023-01-05T10:45:21.001Z,14.00
2023-01-05T10:47:50.881Z,13.90
2023-01-05T10:50:34.899Z,13.80
2023-01-05T10:53:05.660Z,13.90
2023-01-05T10:55:35.001Z,13.90
2023-01-05T10:58:03.442Z,13.60
2023-01-05T11:00:43.144Z,13.60
2023-01-05T11:03:17.093Z,13.60
2023-01-05T11:05:49.213Z,13.60
2023-01-05T11:08:19.849Z,13.60
2023-01-05T11:10:54.046Z,13.70
2023-01-05T11:13:31.781Z,13.80
2023-01-05T11:16:04.510Z,13.80
2023-01-05T11:18:37.625Z,13.80
2023-01-05T11:21:13.362Z,13.80
2023-01-05T11:23:44.087Z,13.80
2023-01-05T11:26:33.463Z,13.80
2023-01-05T11:29:14.679Z,13.80
2023-01-05T11:31:48.062Z,13.80
2023-01-05T11:34:43.139Z,13.70
2023-01-05T11:37:25.310Z,13.80
2023-01-05T11:39:56.627Z,13.80
2023-01-05T11:42:32.715Z,13.70
2023-01-05T11:45:03.667Z,13.60
2023-01-05T11:47:43.181Z,13.70
2023-01-05T11:50:22.880Z,13.80
2023-01-05T11:52:53.986Z,13.80
2023-01-05T11:55:34.432Z,13.70
2023-01-05T11:58:25.578Z,13.70
2023-01-05T12:01:19.450Z,13.80
2023-01-05T12:04:07.257Z,13.80
2023-01-05T12:07:07.284Z,13.80
2023-01-05T12:09:39.783Z,13.80
2023-01-05T12:12:20.174Z,13.90
2023-01-05T12:15:10.331Z,13.90
2023-01-05T12:17:50.932Z,13.90
2023-01-05T12:20:49.155Z,14.00
2023-01-05T12:23:47.386Z,13.90
2023-01-05T12:26:24.508Z,14.00
2023-01-05T12:35:53.946Z,13.80
2023-01-05T12:38:33.008Z,13.80
2023-01-05T12:41:34.820Z,13.70
2023-01-05T12:44:44.421Z,13.60
2023-01-05T12:47:30.007Z,13.60
2023-01-05T12:50:03.632Z,13.60
2023-01-05T12:52:35.206Z,13.40
2023-01-05T12:55:08.496Z,13.40
2023-01-05T12:57:41.642Z,13.30
2023-01-05T13:00:13.200Z,13.30
2023-01-05T13:02:49.768Z,13.30
2023-01-05T13:05:23.151Z,13.30
2023-01-05T13:07:56.231Z,13.40
2023-01-05T13:10:29.477Z,13.40
2023-01-05T13:13:00.959Z,13.30
2023-01-05T13:15:38.807Z,13.30
2023-01-05T13:18:16.132Z,13.30
2023-01-05T13:20:48.068Z,13.40
2023-01-05T13:23:19.231Z,13.30
2023-01-05T13:25:53.030Z,13.30
2023-01-05T13:28:24.582Z,13.40
2023-01-05T13:31:17.081Z,13.40
2023-01-05T13:34:28.066Z,13.50
2023-01-05T13:37:26.590Z,13.60
2023-01-05T13:40:12.260Z,13.40
2023-01-05T13:43:26.384Z,13.40
2023-01-05T13:46:30.919Z,13.30
2023-01-05T13:49:18.056Z,13.40
2023-01-05T13:51:54.595Z,13.40
2023-01-05T13:54:49.265Z,13.40
2023-01-05T13:57:26.090Z,13.40
2023-01-05T14:00:06.513Z,13.50
2023-01-05T14:02:39.040Z,13.50
2023-01-05T14:05:18.304Z,13.50
2023-01-05T14:07:46.638Z,13.50
2023-01-05T14:10:26.259Z,13.40
2023-01-05T14:12:55.316Z,13.40
2023-01-05T14:15:42.381Z,13.50
2023-01-05T14:18:11.663Z,13.50
2023-01-05T14:20:44.971Z,13.60
2023-01-05T14:23:59.897Z,13.60
2023-01-05T14:27:06.755Z,13.60
2023-01-05T14:30:11.267Z,13.40
2023-01-05T14:32:41.397Z,13.50
2023-01-05T14:35:30.038Z,13.40
2023-01-05T14:38:01.942Z,13.50
2023-01-05T14:40:37.235Z,13.60
2023-01-05T14:43:09.651Z,13.60
2023-01-05T14:45:40.896Z,13.60
2023-01-05T14:48:30.630Z,13.70
2023-01-05T14:51:13.886Z,13.50
2023-01-05T14:53:45.042Z,13.60
2023-01-05T14:56:25.077Z,13.60
2023-01-05T14:59:20.046Z,13.60
2023-01-05T15:01:52.576Z,13.60
2023-01-05T15:04:24.816Z,13.60
2023-01-05T15:07:09.743Z,13.50
2023-01-05T15:10:13.540Z,13.50
2023-01-05T15:12:56.455Z,13.50
2023-01-05T15:15:44.345Z,13.50
2023-01-05T15:18:40.428Z,13.40
2023-01-05T15:21:37.557Z,13.50
2023-01-05T15:24:28.701Z,13.40
2023-01-05T15:27:13.471Z,13.40
2023-01-05T15:30:01.509Z,13.50
2023-01-05T15:32:35.976Z,13.50
2023-01-05T15:35:12.090Z,13.50
2023-01-05T15:37:43.335Z,13.40
2023-01-05T15:40:31.187Z,13.30
2023-01-05T15:43:03.344Z,13.20
2023-01-05T15:45:34.582Z,13.20
2023-01-05T15:48:11.353Z,13.20
2023-01-05T15:50:45.999Z,13.20
2023-01-05T15:53:26.118Z,13.30
2023-01-05T15:55:54.461Z,13.20
2023-01-05T15:58:24.318Z,13.20
2023-01-05T16:01:07.205Z,13.20
2023-01-05T16:03:39.056Z,13.20
2023-01-05T16:06:10.372Z,13.20
2023-01-05T16:08:43.112Z,13.20
2023-01-05T16:11:14.796Z,13.20
2023-01-05T16:13:47.791Z,13.10
2023-01-05T16:16:49.871Z,13.20
2023-01-05T16:19:14.743Z,13.10
2023-01-05T16:21:46.975Z,13.10
2023-01-05T16:24:22.507Z,13.10
2023-01-05T16:26:51.022Z,13.00
2023-01-05T16:29:34.570Z,13.00
2023-01-05T16:32:02.964Z,13.10
2023-01-05T16:34:33.184Z,13.00
2023-01-05T16:37:03.675Z,12.90
2023-01-05T16:39:39.536Z,12.90
2023-01-05T16:42:40.343Z,12.90
2023-01-05T16:45:15.713Z,12.80
2023-01-05T16:47:44.938Z,12.80
2023-01-05T16:51:00.774Z,12.90
2023-01-05T16:53:30.671Z,12.90
2023-01-05T16:56:00.794Z,12.90
2023-01-05T16:58:39.865Z,13.00
2023-01-05T17:01:26.961Z,12.90
2023-01-05T17:03:55.803Z,12.90
2023-01-05T17:06:27.725Z,12.90
2023-01-05T17:09:01.611Z,12.90
2023-01-05T17:11:36.731Z,12.90
2023-01-05T17:14:07.657Z,12.90
2023-01-05T17:16:36.097Z,12.90
2023-01-05T17:19:10.941Z,12.90
2023-01-05T17:21:41.321Z,12.80
2023-01-05T17:24:14.065Z,12.80
2023-01-05T17:26:45.449Z,12.80
2023-01-05T17:29:20.534Z,12.70
2023-01-05T17:31:48.963Z,12.70
2023-01-05T17:34:17.816Z,12.80
2023-01-05T17:36:47.286Z,12.90
2023-01-05T17:39:20.668Z,12.80
2023-01-05T17:41:49.478Z,12.80
2023-01-05T17:44:18.356Z,12.70
2023-01-05T17:46:48.344Z,12.60
2023-01-05T17:49:19.470Z,12.70
2023-01-05T17:51:47.982Z,12.70
2023-01-05T17:54:17.812Z,12.60
2023-01-05T17:56:46.179Z,12.60
2023-01-05T17:59:14.473Z,12.60
2023-01-05T18:01:42.920Z,12.50
2023-01-05T18:04:11.653Z,12.50
2023-01-05T18:06:39.859Z,12.40
2023-01-05T18:09:08.265Z,12.40
2023-01-05T18:11:37.994Z,12.40
2023-01-05T18:16:39.597Z,12.30
2023-01-05T18:19:07.852Z,12.30
2023-01-05T18:21:36.266Z,12.40
2023-01-05T18:24:05.043Z,12.30
2023-01-05T18:26:33.273Z,12.40
2023-01-05T18:29:03.085Z,12.40
2023-01-05T18:31:31.654Z,12.40
2023-01-05T18:33:59.999Z,12.40
2023-01-05T18:36:28.204Z,12.40
2023-01-05T18:38:56.544Z,12.40
2023-01-05T18:41:25.456Z,12.40
2023-01-05T18:43:53.895Z,12.40
2023-01-05T18:46:23.920Z,12.40
2023-01-05T18:48:52.788Z,12.30
2023-01-05T18:51:20.995Z,12.30
2023-01-05T18:53:49.872Z,12.50
2023-01-05T18:56:18.202Z,12.50
2023-01-05T18:58:46.726Z,12.50
2023-01-05T19:01:18.155Z,12.50
2023-01-05T19:03:50.530Z,12.50
2023-01-05T19:06:21.270Z,12.50
2023-01-05T19:08:50.006Z,12.50
2023-01-05T19:11:21.600Z,12.50
2023-01-05T19:13:51.270Z,12.40
2023-01-05T19:16:21.182Z,12.40
2023-01-05T19:18:53.882Z,12.30
2023-01-05T19:21:22.792Z,12.30
2023-01-05T19:23:56.404Z,12.30
2023-01-05T19:26:24.796Z,12.40
2023-01-05T19:28:54.416Z,12.30
2023-01-05T19:31:24.032Z,12.30
2023-01-05T19:33:56.151Z,12.30
2023-01-05T19:36:26.203Z,12.30
2023-01-05T19:38:54.438Z,12.30
2023-01-05T19:41:24.620Z,12.30
2023-01-05T19:43:54.958Z,12.20
2023-01-05T19:46:26.682Z,12.30
2023-01-05T19:48:59.136Z,12.20
2023-01-05T19:51:28.986Z,12.20
2023-01-05T19:53:59.847Z,12.20
2023-01-05T19:56:30.965Z,12.30
2023-01-05T19:59:00.629Z,12.30
2023-01-05T20:01:30.972Z,12.30
2023-01-05T20:04:00.662Z,12.30
2023-01-05T20:06:30.666Z,12.30
2023-01-05T20:09:01.163Z,12.20
2023-01-05T20:11:40.600Z,12.20
2023-01-05T20:14:12.263Z,12.30
2023-01-05T20:16:41.655Z,12.30
2023-01-05T20:19:12.139Z,12.30
2023-01-05T20:21:40.518Z,12.20
2023-01-05T20:24:12.166Z,12.30
2023-01-05T20:26:40.987Z,12.20
2023-01-05T20:29:09.301Z,12.20
2023-01-05T20:31:41.005Z,12.30
2023-01-05T20:34:14.837Z,12.30
2023-01-05T20:36:43.210Z,12.30
2023-01-05T20:39:13.327Z,12.20
2023-01-05T20:41:43.433Z,12.20
2023-01-05T20:44:14.523Z,12.20
2023-01-05T20:46:45.523Z,12.20
2023-01-05T20:49:16.373Z,12.30
2023-01-05T20:51:45.182Z,12.30
2023-01-05T20:54:13.842Z,12.30
2023-01-05T20:56:43.923Z,12.30
2023-01-05T20:59:15.364Z,12.20
2023-01-05T21:01:44.856Z,12.20
2023-01-05T21:04:15.142Z,12.30
2023-01-05T21:06:44.355Z,12.20
2023-01-05T21:09:12.730Z,12.20
2023-01-05T21:11:41.213Z,12.20
2023-01-05T21:14:10.500Z,12.30
2023-01-05T21:16:42.086Z,12.20
2023-01-05T21:19:12.780Z,12.30
2023-01-05T21:21:42.362Z,12.30
2023-01-05T21:24:12.021Z,12.30
2023-01-05T21:26:40.376Z,12.30
2023-01-05T21:29:10.292Z,12.30
2023-01-05T21:31:39.337Z,12.30
2023-01-05T21:34:07.772Z,12.30
2023-01-05T21:36:38.463Z,12.30
2023-01-05T21:39:09.849Z,12.20
2023-01-05T21:41:57.176Z,12.20
2023-01-05T21:44:25.671Z,12.20
2023-01-05T21:46:54.008Z,12.10
2023-01-05T21:49:22.476Z,12.10
2023-01-05T21:52:07.979Z,12.00
2023-01-05T21:54:55.312Z,11.90
2023-01-05T21:57:24.044Z,12.00
2023-01-05T21:59:54.167Z,12.00
2023-01-05T22:02:22.569Z,12.10
2023-01-05T22:04:51.015Z,12.00
2023-01-05T22:07:19.561Z,12.00
2023-01-05T22:09:49.324Z,12.10
2023-01-05T22:12:17.628Z,12.10
2023-01-05T22:14:46.237Z,12.10
2023-01-05T22:17:14.406Z,12.10
2023-01-05T22:19:42.780Z,12.10
2023-01-05T22:22:11.175Z,12.10
2023-01-05T22:24:39.562Z,12.10
2023-01-05T22:27:09.282Z,12.00
2023-01-05T22:29:37.562Z,12.00
2023-01-05T22:32:06.183Z,12.00
2023-01-05T22:34:34.540Z,12.00
2023-01-05T22:37:02.801Z,12.00
2023-01-05T22:39:31.168Z,11.90
2023-01-05T22:41:59.491Z,11.90
2023-01-05T22:44:29.276Z,12.00
2023-01-05T22:46:58.645Z,12.10
2023-01-05T22:49:27.303Z,12.00
2023-01-05T22:51:55.632Z,12.10
2023-01-05T22:54:23.824Z,12.10
2023-01-05T22:56:52.227Z,12.10
2023-01-05T22:59:20.563Z,12.00
2023-01-05T23:01:50.113Z,12.00
2023-01-05T23:04:18.701Z,12.10
2023-01-05T23:06:47.045Z,12.10
2023-01-05T23:09:17.178Z,12.00
2023-01-05T23:11:46.967Z,12.00
2023-01-05T23:14:18.390Z,11.90
2023-01-05T23:16:46.836Z,11.90
2023-01-05T23:19:17.567Z,11.90
2023-01-05T23:21:45.984Z,12.00
2023-01-05T23:24:14.233Z,12.00
2023-01-05T23:26:42.625Z,12.00
2023-01-05T23:29:10.827Z,12.00
2023-01-05T23:31:39.004Z,12.00
2023-01-05T23:34:07.766Z,12.10
2023-01-05T23:36:37.349Z,11.90
2023-01-05T23:39:05.650Z,11.90
2023-01-05T23:41:34.512Z,11.90
2023-01-05T23:44:02.888Z,11.90
2023-01-05T23:46:31.196Z,12.00
2023-01-05T23:48:59.472Z,12.00
2023-01-05T23:51:27.879Z,12.00
2023-01-05T23:53:58.678Z,11.90
2023-01-05T23:56:29.821Z,12.00
2023-01-05T23:59:00.033Z,11.90
